createdAt,value
2022-07-25T00:03:50.125Z,26.7
2022-07-25T00:08:42.643Z,26.69
2022-07-25T00:13:35.360Z,26.64
2022-07-25T00:18:27.894Z,26.67
2022-07-25T00:23:20.585Z,26.68
2022-07-25T00:28:13.268Z,26.58
2022-07-25T00:33:05.490Z,26.49
2022-07-25T00:37:58.001Z,26.47
2022-07-25T00:42:50.596Z,26.5
2022-07-25T00:47:43.191Z,26.49
2022-07-25T00:52:36.016Z,26.46
2022-07-25T00:57:28.501Z,26.36
2022-07-25T01:02:21.393Z,26.34
2022-07-25T01:07:13.839Z,26.33
2022-07-25T01:12:06.554Z,26.33
2022-07-25T01:16:59.192Z,26.33
2022-07-25T01:21:51.899Z,26.36
2022-07-25T01:26:44.367Z,26.33
2022-07-25T01:31:37.013Z,26.32
2022-07-25T01:36:29.442Z,26.26
2022-07-25T01:41:22.559Z,26.26
2022-07-25T01:46:14.532Z,26.26
2022-07-25T01:51:07.033Z,26.25
2022-07-25T01:55:59.507Z,26.27
2022-07-25T02:00:52.109Z,26.29
2022-07-25T02:05:44.664Z,26.21
2022-07-25T02:10:37.108Z,26.26
2022-07-25T02:15:29.675Z,26.22
2022-07-25T02:20:22.069Z,26.07
2022-07-25T02:25:14.629Z,26.05
2022-07-25T02:30:07.441Z,26.03
2022-07-25T02:34:59.920Z,25.99
2022-07-25T02:39:52.638Z,26
2022-07-25T02:44:45.215Z,25.99
2022-07-25T02:49:37.963Z,26.02
2022-07-25T02:54:30.558Z,25.92
2022-07-25T02:59:23.340Z,25.94
2022-07-25T03:04:16.267Z,25.98
2022-07-25T03:09:08.712Z,25.93
2022-07-25T03:14:01.286Z,25.91
2022-07-25T03:18:53.886Z,25.82
2022-07-25T03:23:50.518Z,25.81
2022-07-25T03:33:31.435Z,25.76
2022-07-25T03:43:17.040Z,25.75
2022-07-25T03:48:09.441Z,25.42
2022-07-25T03:53:01.283Z,24.79
2022-07-25T03:57:53.641Z,24.51
2022-07-25T04:02:45.755Z,24.38
2022-07-25T04:07:38.369Z,24.18
2022-07-25T04:12:29.684Z,23.82
2022-07-25T04:17:22.189Z,23.52
2022-07-25T04:22:14.523Z,23.45
2022-07-25T04:27:07.609Z,23.82
2022-07-25T04:32:00.642Z,24.11
2022-07-25T04:36:53.498Z,23.91
2022-07-25T04:41:45.997Z,24.04
2022-07-25T04:46:38.623Z,24.03
2022-07-25T04:51:31.202Z,23.69
2022-07-25T04:56:24.216Z,23.96
2022-07-25T05:01:16.903Z,24.1
2022-07-25T05:06:09.189Z,23.68
2022-07-25T05:11:01.313Z,23.67
2022-07-25T05:15:53.948Z,23.88
2022-07-25T05:20:46.479Z,24.02
2022-07-25T05:25:39.260Z,23.78
2022-07-25T05:30:35.349Z,24.16
2022-07-25T05:35:24.877Z,24.01
2022-07-25T05:40:17.257Z,24.05
2022-07-25T05:45:09.579Z,23.92
2022-07-25T05:50:02.298Z,24.01
2022-07-25T05:54:54.874Z,24.07
2022-07-25T05:59:47.854Z,24.07
2022-07-25T06:04:40.410Z,24.16
2022-07-25T06:09:32.857Z,24.21
2022-07-25T06:14:25.199Z,24.22
2022-07-25T06:19:17.935Z,24.32
2022-07-25T06:24:10.599Z,24.39
2022-07-25T06:29:03.533Z,24.44
2022-07-25T06:33:56.068Z,24.55
2022-07-25T06:38:48.656Z,24.56
2022-07-25T06:43:41.360Z,24.77
2022-07-25T06:48:33.913Z,24.77
2022-07-25T06:53:26.883Z,24.96
2022-07-25T06:58:20.227Z,25.25
2022-07-25T07:03:12.756Z,25.28
2022-07-25T07:08:05.361Z,25.36
2022-07-25T07:12:57.961Z,25.48
2022-07-25T07:17:51.058Z,25.59
2022-07-25T07:22:43.528Z,25.72
2022-07-25T07:27:35.854Z,25.75
2022-07-25T07:32:28.389Z,25.79
2022-07-25T07:37:20.648Z,25.8
2022-07-25T07:42:13.036Z,25.84
2022-07-25T07:47:05.517Z,25.85
2022-07-25T07:51:57.978Z,25.85
2022-07-25T07:56:50.458Z,25.88
2022-07-25T08:01:43.148Z,25.89
2022-07-25T08:06:35.547Z,25.85
2022-07-25T08:11:28.214Z,25.87
2022-07-25T08:16:21.190Z,25.89
2022-07-25T08:21:13.984Z,25.91
2022-07-25T08:26:06.588Z,25.93
2022-07-25T08:30:59.339Z,25.96
2022-07-25T08:35:52.107Z,25.98
2022-07-25T08:40:44.817Z,25.99
2022-07-25T08:45:37.897Z,26.01
2022-07-25T08:50:30.321Z,26.04
2022-07-25T08:55:22.796Z,26.07
2022-07-25T09:00:15.518Z,26.09
2022-07-25T09:05:08.012Z,26.1
2022-07-25T09:10:00.548Z,26.13
2022-07-25T09:14:53.424Z,26.15
2022-07-25T09:19:46.013Z,26.16
2022-07-25T09:24:38.796Z,26.18
2022-07-25T09:29:31.476Z,26.2
2022-07-25T09:34:25.564Z,26.22
2022-07-25T09:39:16.795Z,26.25
2022-07-25T09:44:09.680Z,26.25
2022-07-25T09:49:02.204Z,26.27
2022-07-25T09:53:54.884Z,26.3
2022-07-25T09:58:47.718Z,26.33
2022-07-25T10:03:40.418Z,26.35
2022-07-25T10:08:33.079Z,26.37
2022-07-25T10:13:25.836Z,26.4
2022-07-25T10:18:18.418Z,26.41
2022-07-25T10:23:11.109Z,26.46
2022-07-25T10:28:03.733Z,26.45
2022-07-25T10:32:56.331Z,26.47
2022-07-25T10:37:49.346Z,26.48
2022-07-25T10:42:41.667Z,26.5
2022-07-25T10:47:34.190Z,26.52
2022-07-25T10:52:26.600Z,26.55
2022-07-25T10:57:19.231Z,26.58
2022-07-25T11:07:04.777Z,26.64
2022-07-25T11:16:49.651Z,26.71
2022-07-25T11:21:42.289Z,26.74
2022-07-25T11:26:35.018Z,26.75
2022-07-25T11:31:28.131Z,26.77
2022-07-25T11:36:20.777Z,26.8
2022-07-25T11:41:14.008Z,26.83
2022-07-25T11:46:21.063Z,26.86
2022-07-25T11:51:12.618Z,26.88
2022-07-25T11:56:19.659Z,26.91
2022-07-25T12:00:56.926Z,26.93
2022-07-25T12:05:49.921Z,26.96
2022-07-25T12:10:42.630Z,27.01
2022-07-25T12:15:35.539Z,27.05
2022-07-25T12:20:28.487Z,27.07
2022-07-25T12:25:21.283Z,27.08
2022-07-25T12:30:13.830Z,27.1
2022-07-25T12:35:06.439Z,27.13
2022-07-25T12:39:59.046Z,27.16
2022-07-25T12:44:51.875Z,27.19
2022-07-25T12:49:44.620Z,27.21
2022-07-25T12:54:37.129Z,27.25
2022-07-25T12:59:30.104Z,27.26
2022-07-25T13:04:22.347Z,27.31
2022-07-25T13:09:14.963Z,27.35
2022-07-25T13:14:07.696Z,27.36
2022-07-25T13:19:00.106Z,27.37
2022-07-25T13:23:53.104Z,27.39
2022-07-25T13:28:45.603Z,27.43
2022-07-25T13:33:38.512Z,27.46
2022-07-25T13:38:31.078Z,27.48
2022-07-25T13:43:23.502Z,27.48
2022-07-25T13:48:29.329Z,27.49
2022-07-25T13:53:08.868Z,27.52
2022-07-25T13:58:01.554Z,27.53
2022-07-25T14:02:54.135Z,27.54
2022-07-25T14:07:47.153Z,27.54
2022-07-25T14:12:40.018Z,27.57
2022-07-25T14:17:32.524Z,27.59
2022-07-25T14:22:25.291Z,27.62
2022-07-25T14:27:18.055Z,27.61
2022-07-25T14:32:10.828Z,27.63
2022-07-25T14:37:03.145Z,27.65
2022-07-25T14:41:56.158Z,27.65
2022-07-25T14:46:49.000Z,27.69
2022-07-25T14:51:41.831Z,27.75
2022-07-25T14:56:34.687Z,27.73
2022-07-25T15:01:27.293Z,27.74
2022-07-25T15:06:20.185Z,27.8
2022-07-25T15:11:12.869Z,27.75
2022-07-25T15:16:05.387Z,27.77
2022-07-25T15:20:57.860Z,27.77
2022-07-25T15:26:05.784Z,27.78
2022-07-25T15:30:43.115Z,27.78
2022-07-25T15:35:35.745Z,27.8
2022-07-25T15:40:28.433Z,27.82
2022-07-25T15:45:33.693Z,27.82
2022-07-25T15:50:13.686Z,27.83
2022-07-25T15:55:06.367Z,27.81
2022-07-25T15:59:59.210Z,27.8
2022-07-25T16:04:52.075Z,27.81
2022-07-25T16:09:44.848Z,27.82
2022-07-25T16:14:37.451Z,27.81
2022-07-25T16:19:30.205Z,27.79
2022-07-25T16:24:22.814Z,27.86
2022-07-25T16:34:08.786Z,27.88
2022-07-25T16:39:01.411Z,27.86
2022-07-25T16:43:54.374Z,27.84
2022-07-25T16:48:47.287Z,27.85
2022-07-25T16:53:39.979Z,27.91
2022-07-25T16:58:32.616Z,27.86
2022-07-25T17:03:25.342Z,27.92
2022-07-25T17:08:18.368Z,27.89
2022-07-25T17:13:11.313Z,27.9
2022-07-25T17:18:04.022Z,27.9
2022-07-25T17:22:56.913Z,27.92
2022-07-25T17:27:49.694Z,27.92
2022-07-25T17:32:42.646Z,27.95
2022-07-25T17:37:35.503Z,27.95
2022-07-25T17:42:28.343Z,27.97
2022-07-25T17:47:21.102Z,27.98
2022-07-25T17:52:13.725Z,27.96
2022-07-25T17:57:06.335Z,27.96
2022-07-25T18:01:59.135Z,27.96
2022-07-25T18:06:51.696Z,27.99
2022-07-25T18:11:44.806Z,28.01
2022-07-25T18:16:37.764Z,27.92
2022-07-25T18:21:30.400Z,27.88
2022-07-25T18:26:23.100Z,27.94
2022-07-25T18:31:15.485Z,27.75
2022-07-25T18:36:08.143Z,27.66
2022-07-25T18:41:19.237Z,27.51
2022-07-25T18:45:53.283Z,27.53
2022-07-25T18:50:45.773Z,27.35
2022-07-25T18:55:38.672Z,27.25
2022-07-25T19:00:30.573Z,27.19
2022-07-25T19:05:23.333Z,27.03
2022-07-25T19:10:15.757Z,27.17
2022-07-25T19:15:08.458Z,27.02
2022-07-25T19:20:01.030Z,27.04
2022-07-25T19:24:54.411Z,27.41
2022-07-25T19:29:47.242Z,27.48
2022-07-25T19:34:40.292Z,27.52
2022-07-25T19:39:32.955Z,27.57
2022-07-25T19:44:25.253Z,27.6
2022-07-25T19:49:17.973Z,27.58
2022-07-25T19:54:11.063Z,27.64
2022-07-25T19:59:03.182Z,27.63
2022-07-25T20:03:55.546Z,27.64
2022-07-25T20:08:48.613Z,27.68
2022-07-25T20:13:41.239Z,27.71
2022-07-25T20:18:33.917Z,27.71
2022-07-25T20:23:26.425Z,27.68
2022-07-25T20:28:19.217Z,27.61
2022-07-25T20:33:11.704Z,27.6
2022-07-25T20:38:09.077Z,27.58
2022-07-25T20:42:57.297Z,27.55
2022-07-25T20:47:49.967Z,27.54
2022-07-25T20:52:42.536Z,27.57
2022-07-25T20:57:35.111Z,27.57
2022-07-25T21:02:27.650Z,27.58
2022-07-25T21:07:20.191Z,27.51
2022-07-25T21:12:12.814Z,27.51
2022-07-25T21:17:05.306Z,27.5
2022-07-25T21:21:57.934Z,27.49
2022-07-25T21:26:50.644Z,27.47
2022-07-25T21:31:43.529Z,27.4
2022-07-25T21:36:35.879Z,27.42
2022-07-25T21:41:28.457Z,27.44
2022-07-25T21:46:21.173Z,27.41
2022-07-25T21:51:18.971Z,27.42
2022-07-25T21:56:06.642Z,27.41
2022-07-25T22:00:59.098Z,27.39
2022-07-25T22:05:51.947Z,27.4
2022-07-25T22:10:44.864Z,27.42
2022-07-25T22:20:30.041Z,27.38
2022-07-25T22:25:22.587Z,27.39
2022-07-25T22:30:18.985Z,27.34
2022-07-25T22:35:07.924Z,27.37
2022-07-25T22:40:01.216Z,27.35
2022-07-25T22:44:53.022Z,27.37
2022-07-25T22:49:45.503Z,27.37
2022-07-25T22:54:38.087Z,27.35
2022-07-25T22:59:30.552Z,27.36
2022-07-25T23:04:23.211Z,27.38
2022-07-25T23:09:16.035Z,27.33
2022-07-25T23:14:08.691Z,27.32
2022-07-25T23:19:01.752Z,27.29
2022-07-25T23:23:54.519Z,27.29
2022-07-25T23:28:47.171Z,27.3
2022-07-25T23:33:39.848Z,27.28
2022-07-25T23:38:32.549Z,27.3
2022-07-25T23:43:32.477Z,27.24
2022-07-25T23:48:17.899Z,27.25
2022-07-25T23:53:10.898Z,27.24
2022-07-25T23:58:03.604Z,27.17
